This is the latest recevied weather packets stored in our database for station/object SV1TQE-1. If no packets are shown the sender has not sent any weather packets the latest 10 day(s).
| Time | Temp. | Humidity | Pressure | Rain* | Wind** | Luminosity | Snow |
|---|---|---|---|---|---|---|---|
| 1787701968 | 28.33° C | 94% | 1018.2 hPa | - | - | - | - |
| 1787701069 | 28.33° C | 94% | 1018.3 hPa | - | - | - | - |
| 1787700167 | 28.33° C | 92% | 1018.4 hPa | - | - | - | - |
| 1787699267 | 28.33° C | 88% | 1018.5 hPa | - | - | - | - |
| 1787697467 | 28.89° C | 87% | 1018.8 hPa | - | - | - | - |
| 1787695667 | 28.89° C | 87% | 1019 hPa | - | - | - | - |
| 1787694767 | 28.89° C | 88% | 1019.1 hPa | - | - | - | - |
| 1787693867 | 28.89° C | 89% | 1019 hPa | - | - | - | - |
| 1787692960 | 29.44° C | 77% | 1018.9 hPa | - | - | - | - |
| 1787692060 | 30° C | 63% | 1019 hPa | - | - | - | - |
| 1787691160 | 30.56° C | 58% | 1019.1 hPa | - | - | - | - |
| 1787690260 | 30.56° C | 56% | 1018.9 hPa | - | - | - | - |
| 1787689360 | 30° C | 58% | 1019 hPa | - | - | - | - |
| 1787688460 | 30° C | 57% | 1019 hPa | - | - | - | - |
| 1787687560 | 30° C | 58% | 1019 hPa | - | - | - | - |
| 1787686659 | 30° C | 59% | 1019.1 hPa | - | - | - | - |
| 1787685759 | 30° C | 62% | 1019.3 hPa | - | - | - | - |
| 1787684862 | 30° C | 62% | 1019.3 hPa | - | - | - | - |
| 1787683956 | 30° C | 63% | 1019.1 hPa | - | - | - | - |
| 1787683056 | 30.56° C | 58% | 1019 hPa | - | - | - | - |
| 1787682156 | 30.56° C | 55% | 1018.9 hPa | - | - | - | - |
| 1787681256 | 31.11° C | 51% | 1018.8 hPa | - | - | - | - |
| 1787680356 | 31.67° C | 46% | 1018.7 hPa | - | - | - | - |
| 1787679456 | 32.22° C | 47% | 1018.8 hPa | - | - | - | - |
| 1787678556 | 33.33° C | 37% | 1018.6 hPa | - | - | - | - |
* Rain since midnight (hover to see other rain measurements)
** Current wind speed in m/s (hover to see current wind gust speed)